sensor_id;sensor_type;location;lat;lon;timestamp;P1;durP1;ratioP1;P2;durP2;ratioP2
43664;SDS011;29263;48.172;11.484;2022-08-19T00:01:41;8.48;;;4.63;;
43664;SDS011;29263;48.172;11.484;2022-08-19T00:04:09;5.03;;;4.13;;
43664;SDS011;29263;48.172;11.484;2022-08-19T00:06:38;4.90;;;4.38;;
43664;SDS011;29263;48.172;11.484;2022-08-19T00:09:06;5.88;;;4.78;;
43664;SDS011;29263;48.172;11.484;2022-08-19T00:11:34;6.87;;;5.00;;
43664;SDS011;29263;48.172;11.484;2022-08-19T00:14:01;7.07;;;5.20;;
43664;SDS011;29263;48.172;11.484;2022-08-19T00:16:27;5.95;;;5.03;;
43664;SDS011;29263;48.172;11.484;2022-08-19T00:18:55;6.70;;;5.43;;
43664;SDS011;29263;48.172;11.484;2022-08-19T00:21:22;6.70;;;5.22;;
43664;SDS011;29263;48.172;11.484;2022-08-19T00:23:48;6.20;;;5.00;;
43664;SDS011;29263;48.172;11.484;2022-08-19T00:26:14;8.13;;;6.28;;
43664;SDS011;29263;48.172;11.484;2022-08-19T00:28:40;8.10;;;6.20;;
43664;SDS011;29263;48.172;11.484;2022-08-19T00:31:06;10.35;;;7.22;;
43664;SDS011;29263;48.172;11.484;2022-08-19T00:33:33;11.38;;;6.85;;
43664;SDS011;29263;48.172;11.484;2022-08-19T00:36:00;8.65;;;6.90;;
43664;SDS011;29263;48.172;11.484;2022-08-19T00:38:29;8.77;;;7.07;;
43664;SDS011;29263;48.172;11.484;2022-08-19T00:40:54;9.13;;;7.68;;
43664;SDS011;29263;48.172;11.484;2022-08-19T00:43:22;8.38;;;7.15;;
43664;SDS011;29263;48.172;11.484;2022-08-19T00:45:49;10.23;;;7.88;;
43664;SDS011;29263;48.172;11.484;2022-08-19T00:48:15;9.80;;;7.82;;
43664;SDS011;29263;48.172;11.484;2022-08-19T00:50:42;12.82;;;8.63;;
43664;SDS011;29263;48.172;11.484;2022-08-19T00:53:09;9.60;;;7.95;;
43664;SDS011;29263;48.172;11.484;2022-08-19T00:55:37;12.45;;;9.30;;
43664;SDS011;29263;48.172;11.484;2022-08-19T01:01:25;11.00;;;8.60;;
43664;SDS011;29263;48.172;11.484;2022-08-19T01:03:51;12.82;;;9.30;;
43664;SDS011;29263;48.172;11.484;2022-08-19T01:06:16;12.93;;;8.52;;
43664;SDS011;29263;48.172;11.484;2022-08-19T01:08:42;11.80;;;8.80;;
43664;SDS011;29263;48.172;11.484;2022-08-19T01:14:29;14.15;;;9.93;;
43664;SDS011;29263;48.172;11.484;2022-08-19T01:20:17;14.93;;;9.35;;
43664;SDS011;29263;48.172;11.484;2022-08-19T01:22:46;11.90;;;9.38;;
43664;SDS011;29263;48.172;11.484;2022-08-19T01:25:15;14.52;;;10.32;;
43664;SDS011;29263;48.172;11.484;2022-08-19T01:27:44;11.23;;;9.93;;
43664;SDS011;29263;48.172;11.484;2022-08-19T01:30:13;14.60;;;10.80;;
43664;SDS011;29263;48.172;11.484;2022-08-19T01:32:41;14.23;;;10.75;;
43664;SDS011;29263;48.172;11.484;2022-08-19T01:35:08;13.23;;;10.02;;
43664;SDS011;29263;48.172;11.484;2022-08-19T01:37:48;11.93;;;9.32;;
43664;SDS011;29263;48.172;11.484;2022-08-19T01:40:19;12.63;;;9.27;;
43664;SDS011;29263;48.172;11.484;2022-08-19T01:42:47;12.50;;;9.50;;
43664;SDS011;29263;48.172;11.484;2022-08-19T01:45:14;14.05;;;9.27;;
43664;SDS011;29263;48.172;11.484;2022-08-19T01:47:40;11.80;;;9.45;;
43664;SDS011;29263;48.172;11.484;2022-08-19T01:50:06;14.02;;;9.60;;
43664;SDS011;29263;48.172;11.484;2022-08-19T01:52:38;14.00;;;10.00;;
43664;SDS011;29263;48.172;11.484;2022-08-19T01:55:06;13.48;;;9.93;;
43664;SDS011;29263;48.172;11.484;2022-08-19T02:00:37;14.98;;;10.15;;
43664;SDS011;29263;48.172;11.484;2022-08-19T02:03:02;12.15;;;9.20;;
43664;SDS011;29263;48.172;11.484;2022-08-19T02:05:28;13.20;;;9.32;;
43664;SDS011;29263;48.172;11.484;2022-08-19T02:07:54;14.00;;;10.70;;
43664;SDS011;29263;48.172;11.484;2022-08-19T02:10:21;13.70;;;9.90;;
43664;SDS011;29263;48.172;11.484;2022-08-19T02:12:47;15.50;;;10.27;;
43664;SDS011;29263;48.172;11.484;2022-08-19T02:15:14;11.57;;;9.45;;
43664;SDS011;29263;48.172;11.484;2022-08-19T02:17:40;12.55;;;9.23;;
43664;SDS011;29263;48.172;11.484;2022-08-19T02:20:06;11.30;;;8.88;;
43664;SDS011;29263;48.172;11.484;2022-08-19T02:22:33;11.07;;;8.60;;
43664;SDS011;29263;48.172;11.484;2022-08-19T02:28:06;10.40;;;8.23;;
43664;SDS011;29263;48.172;11.484;2022-08-19T02:30:32;10.38;;;8.05;;
43664;SDS011;29263;48.172;11.484;2022-08-19T02:32:58;10.55;;;7.38;;
43664;SDS011;29263;48.172;11.484;2022-08-19T02:35:24;9.43;;;7.57;;
43664;SDS011;29263;48.172;11.484;2022-08-19T02:37:50;9.93;;;7.43;;
43664;SDS011;29263;48.172;11.484;2022-08-19T02:40:34;9.43;;;7.00;;
43664;SDS011;29263;48.172;11.484;2022-08-19T02:43:01;8.00;;;6.65;;
43664;SDS011;29263;48.172;11.484;2022-08-19T02:45:32;8.00;;;6.82;;
43664;SDS011;29263;48.172;11.484;2022-08-19T02:47:58;9.02;;;6.68;;
43664;SDS011;29263;48.172;11.484;2022-08-19T02:50:24;10.18;;;7.20;;
43664;SDS011;29263;48.172;11.484;2022-08-19T02:52:49;7.65;;;6.22;;
43664;SDS011;29263;48.172;11.484;2022-08-19T02:55:15;8.07;;;6.72;;
43664;SDS011;29263;48.172;11.484;2022-08-19T02:57:40;8.50;;;6.63;;
43664;SDS011;29263;48.172;11.484;2022-08-19T03:00:07;8.55;;;6.85;;
43664;SDS011;29263;48.172;11.484;2022-08-19T03:02:37;8.55;;;6.28;;
43664;SDS011;29263;48.172;11.484;2022-08-19T03:05:03;8.55;;;6.43;;
43664;SDS011;29263;48.172;11.484;2022-08-19T03:09:58;8.93;;;7.18;;
43664;SDS011;29263;48.172;11.484;2022-08-19T03:12:23;8.52;;;7.07;;
43664;SDS011;29263;48.172;11.484;2022-08-19T03:14:49;9.55;;;6.30;;
43664;SDS011;29263;48.172;11.484;2022-08-19T03:17:15;9.80;;;6.10;;
43664;SDS011;29263;48.172;11.484;2022-08-19T03:19:41;10.30;;;6.72;;
43664;SDS011;29263;48.172;11.484;2022-08-19T03:22:08;8.45;;;6.13;;
43664;SDS011;29263;48.172;11.484;2022-08-19T03:24:33;9.40;;;6.80;;
43664;SDS011;29263;48.172;11.484;2022-08-19T03:26:59;8.30;;;6.68;;
43664;SDS011;29263;48.172;11.484;2022-08-19T03:29:28;8.23;;;6.25;;
43664;SDS011;29263;48.172;11.484;2022-08-19T03:31:56;7.53;;;5.75;;
43664;SDS011;29263;48.172;11.484;2022-08-19T03:37:32;8.45;;;6.25;;
43664;SDS011;29263;48.172;11.484;2022-08-19T03:39:57;7.47;;;6.22;;
43664;SDS011;29263;48.172;11.484;2022-08-19T03:42:23;7.68;;;6.10;;
43664;SDS011;29263;48.172;11.484;2022-08-19T03:44:49;7.80;;;6.38;;
43664;SDS011;29263;48.172;11.484;2022-08-19T03:47:15;9.10;;;6.20;;
43664;SDS011;29263;48.172;11.484;2022-08-19T03:49:41;8.90;;;6.15;;
43664;SDS011;29263;48.172;11.484;2022-08-19T03:52:07;9.15;;;6.18;;
43664;SDS011;29263;48.172;11.484;2022-08-19T03:54:33;9.20;;;6.47;;
43664;SDS011;29263;48.172;11.484;2022-08-19T03:56:59;9.00;;;6.32;;
43664;SDS011;29263;48.172;11.484;2022-08-19T03:59:29;9.07;;;7.30;;
43664;SDS011;29263;48.172;11.484;2022-08-19T04:01:58;8.43;;;6.47;;
43664;SDS011;29263;48.172;11.484;2022-08-19T04:04:26;10.27;;;7.45;;
43664;SDS011;29263;48.172;11.484;2022-08-19T04:06:52;8.15;;;6.40;;
43664;SDS011;29263;48.172;11.484;2022-08-19T04:09:18;10.27;;;7.95;;
43664;SDS011;29263;48.172;11.484;2022-08-19T04:11:48;8.82;;;6.68;;
43664;SDS011;29263;48.172;11.484;2022-08-19T04:14:28;9.45;;;6.95;;
43664;SDS011;29263;48.172;11.484;2022-08-19T04:16:58;11.00;;;7.50;;
43664;SDS011;29263;48.172;11.484;2022-08-19T04:19:25;10.63;;;7.57;;
43664;SDS011;29263;48.172;11.484;2022-08-19T04:21:52;12.73;;;8.32;;
43664;SDS011;29263;48.172;11.484;2022-08-19T04:24:19;12.52;;;7.55;;
43664;SDS011;29263;48.172;11.484;2022-08-19T04:26:46;10.40;;;7.25;;
43664;SDS011;29263;48.172;11.484;2022-08-19T04:29:15;10.40;;;7.68;;
43664;SDS011;29263;48.172;11.484;2022-08-19T04:31:46;12.07;;;7.93;;
43664;SDS011;29263;48.172;11.484;2022-08-19T04:34:13;10.80;;;7.80;;
43664;SDS011;29263;48.172;11.484;2022-08-19T04:36:42;10.90;;;8.02;;
43664;SDS011;29263;48.172;11.484;2022-08-19T04:39:16;10.15;;;7.55;;
43664;SDS011;29263;48.172;11.484;2022-08-19T04:41:43;10.70;;;8.60;;
43664;SDS011;29263;48.172;11.484;2022-08-19T04:44:29;10.63;;;7.43;;
43664;SDS011;29263;48.172;11.484;2022-08-19T04:46:56;10.65;;;7.15;;
43664;SDS011;29263;48.172;11.484;2022-08-19T04:49:22;12.73;;;8.70;;
43664;SDS011;29263;48.172;11.484;2022-08-19T04:51:48;10.98;;;7.80;;
43664;SDS011;29263;48.172;11.484;2022-08-19T04:54:15;10.18;;;7.47;;
43664;SDS011;29263;48.172;11.484;2022-08-19T04:56:42;8.82;;;7.15;;
43664;SDS011;29263;48.172;11.484;2022-08-19T08:45:12;29.83;;;19.83;;
43664;SDS011;29263;48.172;11.484;2022-08-19T08:47:41;31.63;;;20.10;;
43664;SDS011;29263;48.172;11.484;2022-08-19T08:50:34;24.10;;;17.92;;
43664;SDS011;29263;48.172;11.484;2022-08-19T08:53:04;26.52;;;18.42;;
43664;SDS011;29263;48.172;11.484;2022-08-19T08:55:31;30.02;;;20.60;;
43664;SDS011;29263;48.172;11.484;2022-08-19T09:00:29;30.58;;;21.05;;
43664;SDS011;29263;48.172;11.484;2022-08-19T09:02:57;30.75;;;20.73;;
43664;SDS011;29263;48.172;11.484;2022-08-19T09:05:26;28.38;;;19.48;;
43664;SDS011;29263;48.172;11.484;2022-08-19T09:08:15;29.90;;;20.73;;
43664;SDS011;29263;48.172;11.484;2022-08-19T09:18:10;36.33;;;23.25;;
43664;SDS011;29263;48.172;11.484;2022-08-19T09:23:58;36.83;;;24.30;;
43664;SDS011;29263;48.172;11.484;2022-08-19T09:29:45;31.88;;;20.85;;
43664;SDS011;29263;48.172;11.484;2022-08-19T09:48:28;29.73;;;19.17;;
43664;SDS011;29263;48.172;11.484;2022-08-19T09:50:53;32.63;;;20.50;;
43664;SDS011;29263;48.172;11.484;2022-08-19T09:53:19;32.65;;;20.83;;
43664;SDS011;29263;48.172;11.484;2022-08-19T09:55:47;28.60;;;18.02;;
43664;SDS011;29263;48.172;11.484;2022-08-19T09:58:13;28.52;;;18.40;;
43664;SDS011;29263;48.172;11.484;2022-08-19T10:00:38;26.95;;;18.40;;
43664;SDS011;29263;48.172;11.484;2022-08-19T10:03:04;27.38;;;17.63;;
43664;SDS011;29263;48.172;11.484;2022-08-19T10:05:30;25.77;;;17.13;;
43664;SDS011;29263;48.172;11.484;2022-08-19T10:08:14;26.10;;;16.90;;
43664;SDS011;29263;48.172;11.484;2022-08-19T10:47:45;23.52;;;16.85;;
43664;SDS011;29263;48.172;11.484;2022-08-19T10:58:49;14.65;;;11.55;;
43664;SDS011;29263;48.172;11.484;2022-08-19T11:09:47;8.65;;;7.00;;
43664;SDS011;29263;48.172;11.484;2022-08-19T11:12:13;8.25;;;6.32;;
43664;SDS011;29263;48.172;11.484;2022-08-19T11:14:40;5.22;;;4.60;;
43664;SDS011;29263;48.172;11.484;2022-08-19T11:17:05;4.20;;;3.42;;
43664;SDS011;29263;48.172;11.484;2022-08-19T11:19:32;3.75;;;3.38;;
43664;SDS011;29263;48.172;11.484;2022-08-19T11:21:58;2.58;;;2.00;;
43664;SDS011;29263;48.172;11.484;2022-08-19T11:24:27;2.50;;;2.30;;
43664;SDS011;29263;48.172;11.484;2022-08-19T11:26:54;2.25;;;2.05;;
43664;SDS011;29263;48.172;11.484;2022-08-19T11:29:25;3.10;;;2.60;;
43664;SDS011;29263;48.172;11.484;2022-08-19T11:31:52;2.75;;;2.55;;
43664;SDS011;29263;48.172;11.484;2022-08-19T11:34:21;3.53;;;2.63;;
43664;SDS011;29263;48.172;11.484;2022-08-19T11:36:49;2.90;;;2.60;;
43664;SDS011;29263;48.172;11.484;2022-08-19T11:39:19;2.80;;;2.25;;
43664;SDS011;29263;48.172;11.484;2022-08-19T11:41:46;2.22;;;2.03;;
43664;SDS011;29263;48.172;11.484;2022-08-19T11:44:12;1.90;;;1.70;;
43664;SDS011;29263;48.172;11.484;2022-08-19T11:46:39;2.55;;;1.90;;
43664;SDS011;29263;48.172;11.484;2022-08-19T11:49:06;1.45;;;1.35;;
43664;SDS011;29263;48.172;11.484;2022-08-19T11:51:35;1.52;;;1.42;;
43664;SDS011;29263;48.172;11.484;2022-08-19T11:54:01;1.60;;;1.38;;
43664;SDS011;29263;48.172;11.484;2022-08-19T11:56:29;1.17;;;1.02;;
43664;SDS011;29263;48.172;11.484;2022-08-19T11:58:54;1.48;;;1.15;;
43664;SDS011;29263;48.172;11.484;2022-08-19T12:01:23;1.00;;;1.00;;
43664;SDS011;29263;48.172;11.484;2022-08-19T12:03:50;1.17;;;0.98;;
43664;SDS011;29263;48.172;11.484;2022-08-19T12:06:22;1.20;;;1.10;;
43664;SDS011;29263;48.172;11.484;2022-08-19T12:08:53;1.77;;;1.20;;
43664;SDS011;29263;48.172;11.484;2022-08-19T12:11:20;1.52;;;1.10;;
43664;SDS011;29263;48.172;11.484;2022-08-19T12:13:45;1.30;;;1.10;;
43664;SDS011;29263;48.172;11.484;2022-08-19T12:16:19;1.10;;;1.00;;
43664;SDS011;29263;48.172;11.484;2022-08-19T12:18:48;1.30;;;1.10;;
43664;SDS011;29263;48.172;11.484;2022-08-19T12:21:16;1.02;;;0.95;;
43664;SDS011;29263;48.172;11.484;2022-08-19T12:23:47;1.42;;;1.27;;
43664;SDS011;29263;48.172;11.484;2022-08-19T12:26:14;1.40;;;0.90;;
43664;SDS011;29263;48.172;11.484;2022-08-19T12:28:40;1.30;;;0.93;;
43664;SDS011;29263;48.172;11.484;2022-08-19T12:31:06;1.15;;;0.88;;
43664;SDS011;29263;48.172;11.484;2022-08-19T12:33:32;1.17;;;0.95;;
43664;SDS011;29263;48.172;11.484;2022-08-19T12:36:02;0.90;;;0.75;;
43664;SDS011;29263;48.172;11.484;2022-08-19T12:58:14;1.08;;;0.80;;
43664;SDS011;29263;48.172;11.484;2022-08-19T13:07:42;1.52;;;1.00;;
43664;SDS011;29263;48.172;11.484;2022-08-19T13:14:22;1.08;;;0.98;;
43664;SDS011;29263;48.172;11.484;2022-08-19T13:19:23;1.35;;;0.60;;
43664;SDS011;29263;48.172;11.484;2022-08-19T13:21:50;1.35;;;1.02;;
43664;SDS011;29263;48.172;11.484;2022-08-19T13:24:16;1.08;;;0.80;;
43664;SDS011;29263;48.172;11.484;2022-08-19T13:26:42;1.42;;;1.00;;
43664;SDS011;29263;48.172;11.484;2022-08-19T13:29:08;1.08;;;0.98;;
43664;SDS011;29263;48.172;11.484;2022-08-19T13:43:28;1.40;;;1.17;;
43664;SDS011;29263;48.172;11.484;2022-08-19T14:31:37;2.15;;;1.95;;
43664;SDS011;29263;48.172;11.484;2022-08-19T14:34:04;2.15;;;1.90;;
43664;SDS011;29263;48.172;11.484;2022-08-19T14:52:06;2.17;;;1.90;;
43664;SDS011;29263;48.172;11.484;2022-08-19T14:54:32;3.80;;;2.45;;
43664;SDS011;29263;48.172;11.484;2022-08-19T20:28:57;7.13;;;5.03;;
